Time;durP1;ratioP1;P1;durP2;ratioP2;P2;SDS_P1;SDS_P2;PMS_P1;PMS_P2;Temp;Humidity;BMP_temperature;BMP_pressure;BME280_temperature;BME280_humidity;BME280_pressure;Samples;Min_cycle;Max_cycle;Signal;HPM_P1;HPM_P2
2023/03/16 00:01:10;;;;;;;;;;;;;;;3.11;59.97;100357.34;5588849;31;34876;-66
2023/03/16 00:04:18;;;;;;;;;;;;;;;3.09;61.02;100362.72;5575494;31;34911;-66
2023/03/16 00:07:24;;;;;;;;;;;;;;;3.10;60.76;100374.06;5588668;31;34169;-66
2023/03/16 00:10:30;;;;;;;;;;;;;;;2.95;61.69;100371.66;5588614;31;34949;-67
2023/03/16 00:13:37;;;;;;;;;;;;;;;2.93;62.58;100375.34;5575006;31;34848;-67
2023/03/16 00:16:44;;;;;;;;;;;;;;;2.84;63.17;100382.16;5588390;31;35030;-67
2023/03/16 00:19:55;;;;;;;;;;;;;;;2.77;64.29;100377.47;5588502;31;34366;-67
2023/03/16 00:23:04;;;;;;;;;;;;;;;2.74;64.08;100380.34;5588491;31;34802;-67
2023/03/16 00:26:11;;;;;;;;;;;;;;;2.69;64.32;100391.19;5588388;31;34294;-68
2023/03/16 00:29:21;;;;;;;;;;;;;;;2.73;64.08;100395.22;5588205;31;34846;-67
2023/03/16 00:32:31;;;;;;;;;;;;;;;2.75;63.66;100397.75;5588250;31;34927;-67
2023/03/16 00:35:48;;;;;;;;;;;;;;;2.74;63.88;100394.28;5587309;31;34859;-68
2023/03/16 00:38:56;;;;;;;;;;;;;;;2.66;64.51;100388.81;5587522;31;34162;-68
2023/03/16 00:42:04;;;;;;;;;;;;;;;2.55;65.95;100397.47;5588061;31;34188;-66
2023/03/16 00:45:11;;;;;;;;;;;;;;;2.43;67.72;100397.56;5588029;31;34925;-67
2023/03/16 00:48:23;;;;;;;;;;;;;;;2.38;68.46;100402.28;5587866;31;34912;-66
2023/03/16 00:51:32;;;;;;;;;;;;;;;2.25;69.85;100397.16;5587955;31;34505;-67
2023/03/16 00:54:42;;;;;;;;;;;;;;;2.19;70.45;100411.53;5587854;31;34923;-67
2023/03/16 00:57:48;;;;;;;;;;;;;;;2.18;70.71;100411.62;5587803;31;34935;-66
2023/03/16 01:00:56;;;;;;;;;;;;;;;2.19;70.81;100408.06;5587773;31;34891;-67
2023/03/16 01:04:05;;;;;;;;;;;;;;;2.09;71.24;100414.94;5588037;31;34728;-67
2023/03/16 01:07:13;;;;;;;;;;;;;;;2.05;71.42;100419.56;5576906;31;33750;-67
2023/03/16 01:10:20;;;;;;;;;;;;;;;2.07;71.62;100420.28;5590578;31;34932;-66
2023/03/16 01:13:28;;;;;;;;;;;;;;;1.98;72.89;100409.66;5590261;31;32922;-66
2023/03/16 01:16:34;;;;;;;;;;;;;;;1.86;74.36;100408.78;5590479;31;34195;-67
2023/03/16 01:19:46;;;;;;;;;;;;;;;1.86;73.73;100405.31;5590304;31;34150;-67
2023/03/16 01:22:54;;;;;;;;;;;;;;;1.77;73.93;100413.84;5590524;31;33760;-67
2023/03/16 01:26:04;;;;;;;;;;;;;;;1.75;74.64;100417.41;5589645;31;34883;-67
2023/03/16 01:29:14;;;;;;;;;;;;;;;2.01;71.41;100414.66;5590277;31;34242;-68
2023/03/16 01:32:22;;;;;;;;;;;;;;;2.10;69.03;100412.22;5590362;31;34214;-67
2023/03/16 01:35:28;;;;;;;;;;;;;;;2.34;67.15;100409.56;5590252;31;34278;-67
2023/03/16 01:38:36;;;;;;;;;;;;;;;2.36;67.89;100415.53;5590139;31;34476;-66
2023/03/16 01:41:48;;;;;;;;;;;;;;;2.28;68.46;100406.53;5590298;31;34219;-67
2023/03/16 01:45:00;;;;;;;;;;;;;;;2.26;69.78;100409.28;5590323;31;34874;-67
2023/03/16 01:48:09;;;;;;;;;;;;;;;2.14;68.81;100416.25;5590177;31;34875;-68
2023/03/16 01:51:22;;;;;;;;;;;;;;;2.28;68.08;100420.47;5590103;31;34517;-66
2023/03/16 01:54:29;;;;;;;;;;;;;;;2.18;69.00;100420.31;5589916;31;34337;-67
2023/03/16 01:57:38;;;;;;;;;;;;;;;2.09;70.72;100420.16;5590084;31;34166;-66
2023/03/16 02:00:44;;;;;;;;;;;;;;;2.07;71.08;100436.00;5576906;31;34448;-67
2023/03/16 02:03:56;;;;;;;;;;;;;;;1.93;71.55;100433.56;5589999;31;34255;-66
2023/03/16 02:07:04;;;;;;;;;;;;;;;1.92;72.47;100444.97;5590014;31;34138;-67
2023/03/16 02:10:14;;;;;;;;;;;;;;;1.92;72.56;100444.97;5589976;31;34915;-67
2023/03/16 02:13:24;;;;;;;;;;;;;;;1.88;72.72;100451.38;5589880;31;34337;-67
2023/03/16 02:16:34;;;;;;;;;;;;;;;1.88;73.53;100451.38;5588694;31;32891;-67
2023/03/16 02:19:47;;;;;;;;;;;;;;;1.84;73.55;100449.88;5589901;31;34487;-67
2023/03/16 02:22:57;;;;;;;;;;;;;;;1.88;73.20;100461.00;5589724;31;34523;-66
2023/03/16 02:26:21;;;;;;;;;;;;;;;1.84;74.34;100468.19;5589780;31;34278;-66
2023/03/16 02:29:47;;;;;;;;;;;;;;;1.73;74.91;100466.38;5589742;31;32979;-67
2023/03/16 02:32:56;;;;;;;;;;;;;;;1.76;75.35;100465.31;5589726;31;34502;-66
2023/03/16 02:36:03;;;;;;;;;;;;;;;1.70;75.65;100482.25;5589775;31;34578;-67
2023/03/16 02:39:11;;;;;;;;;;;;;;;1.78;75.33;100475.66;5589890;31;34276;-67
2023/03/16 02:42:20;;;;;;;;;;;;;;;1.72;75.50;100484.78;5589778;31;34328;-66
2023/03/16 02:45:37;;;;;;;;;;;;;;;1.68;76.71;100496.41;5589711;31;34408;-67
2023/03/16 02:48:57;;;;;;;;;;;;;;;1.59;76.73;100499.69;5589846;31;34329;-66
2023/03/16 02:52:07;;;;;;;;;;;;;;;1.43;77.86;100496.44;5589667;31;34880;-67
2023/03/16 02:55:14;;;;;;;;;;;;;;;1.39;78.60;100498.44;5589610;31;34522;-67
2023/03/16 02:58:23;;;;;;;;;;;;;;;1.43;78.39;100499.91;5589784;31;34552;-66
2023/03/16 03:01:31;;;;;;;;;;;;;;;1.41;78.88;100504.38;5589724;31;34675;-67
2023/03/16 03:04:40;;;;;;;;;;;;;;;1.37;80.07;100510.78;5589738;31;34651;-67
2023/03/16 03:07:46;;;;;;;;;;;;;;;1.23;81.18;100516.97;5589629;31;34338;-68
2023/03/16 03:10:54;;;;;;;;;;;;;;;1.37;80.75;100515.16;5589622;31;34309;-66
2023/03/16 03:14:02;;;;;;;;;;;;;;;1.31;81.35;100526.88;5589148;31;34650;-67
2023/03/16 03:17:12;;;;;;;;;;;;;;;1.45;79.74;100524.16;5589370;31;34456;-67
2023/03/16 03:20:20;;;;;;;;;;;;;;;1.39;80.39;100531.59;5589680;31;35068;-68
2023/03/16 03:23:26;;;;;;;;;;;;;;;1.37;80.69;100525.63;5589295;31;34553;-68
2023/03/16 03:26:37;;;;;;;;;;;;;;;1.43;81.49;100535.66;5588626;31;34659;-67
2023/03/16 03:29:48;;;;;;;;;;;;;;;1.58;80.58;100538.06;5589266;31;35056;-67
2023/03/16 03:32:56;;;;;;;;;;;;;;;1.60;79.36;100538.75;5588464;31;35071;-67
2023/03/16 03:36:05;;;;;;;;;;;;;;;1.55;80.44;100546.09;5588512;31;34454;-67
2023/03/16 03:39:14;;;;;;;;;;;;;;;1.64;80.25;100550.72;5589160;31;35157;-66
2023/03/16 03:42:26;;;;;;;;;;;;;;;1.60;80.29;100557.06;5576355;31;34529;-66
2023/03/16 03:45:32;;;;;;;;;;;;;;;1.47;81.32;100556.25;5589062;31;34631;-66
2023/03/16 03:48:39;;;;;;;;;;;;;;;1.43;81.55;100562.63;5589117;31;35062;-67
2023/03/16 03:51:47;;;;;;;;;;;;;;;1.32;82.52;100565.13;5589034;31;34585;-66
2023/03/16 03:54:58;;;;;;;;;;;;;;;1.42;83.79;100562.72;5588908;31;34412;-67
2023/03/16 03:58:04;;;;;;;;;;;;;;;1.22;85.11;100567.53;5588850;31;34506;-66
2023/03/16 04:01:12;;;;;;;;;;;;;;;1.26;86.19;100576.00;5588842;31;34561;-66
2023/03/16 04:04:20;;;;;;;;;;;;;;;1.33;84.91;100577.28;5588791;31;35042;-66
2023/03/16 04:07:28;;;;;;;;;;;;;;;1.34;83.91;100567.66;5588800;31;34637;-66
2023/03/16 04:10:38;;;;;;;;;;;;;;;1.16;85.79;100577.59;5588754;31;35150;-66
2023/03/16 04:13:44;;;;;;;;;;;;;;;1.15;86.32;100574.12;5588483;31;34567;-66
2023/03/16 04:16:53;;;;;;;;;;;;;;;1.05;86.69;100586.16;5588648;31;34541;-66
2023/03/16 04:19:59;;;;;;;;;;;;;;;1.11;86.68;100587.50;5588577;31;34419;-67
2023/03/16 04:23:07;;;;;;;;;;;;;;;1.22;85.57;100593.69;5588487;31;34866;-67
2023/03/16 04:26:14;;;;;;;;;;;;;;;1.36;84.59;100590.13;5588371;31;35308;-67
2023/03/16 04:29:24;;;;;;;;;;;;;;;1.24;85.52;100591.81;5588217;31;34578;-67
2023/03/16 04:32:33;;;;;;;;;;;;;;;1.25;84.80;100603.94;5588375;31;34551;-67
2023/03/16 04:35:41;;;;;;;;;;;;;;;1.24;84.59;100591.81;5588181;31;35163;-67
2023/03/16 04:38:49;;;;;;;;;;;;;;;1.24;85.17;100604.03;5588143;31;34583;-67
2023/03/16 04:41:56;;;;;;;;;;;;;;;1.23;84.97;100604.97;5590027;31;35168;-67
2023/03/16 04:45:04;;;;;;;;;;;;;;;1.30;84.31;100604.47;5590729;31;34738;-67
2023/03/16 04:48:14;;;;;;;;;;;;;;;1.44;82.52;100607.91;5590869;31;34675;-67
2023/03/16 04:51:26;;;;;;;;;;;;;;;1.55;81.30;100608.84;5590751;31;34414;-67
2023/03/16 04:54:33;;;;;;;;;;;;;;;1.52;81.17;100614.28;5590801;31;34461;-66
2023/03/16 04:57:39;;;;;;;;;;;;;;;1.57;81.52;100617.44;5590602;31;34586;-68
2023/03/16 05:00:45;;;;;;;;;;;;;;;1.53;80.63;100620.34;5589895;31;34512;-69
2023/03/16 05:03:54;;;;;;;;;;;;;;;1.68;79.05;100627.16;5589994;31;35155;-67
2023/03/16 05:07:06;;;;;;;;;;;;;;;1.69;79.10;100626.22;5590641;31;34426;-70
2023/03/16 05:10:15;;;;;;;;;;;;;;;1.60;79.34;100638.13;5590578;31;34611;-66
2023/03/16 05:13:25;;;;;;;;;;;;;;;1.66;79.08;100637.72;5590310;31;34554;-67
2023/03/16 05:16:37;;;;;;;;;;;;;;;1.66;79.41;100636.87;5590528;31;34569;-66
2023/03/16 05:19:45;;;;;;;;;;;;;;;1.67;79.15;100641.19;5590573;31;34444;-66
2023/03/16 05:22:53;;;;;;;;;;;;;;;1.71;79.49;100646.09;5590354;31;34025;-66
2023/03/16 05:26:00;;;;;;;;;;;;;;;1.75;78.50;100644.94;5590248;31;35074;-68
2023/03/16 05:29:06;;;;;;;;;;;;;;;1.74;78.81;100645.88;5589448;31;34569;-67
2023/03/16 05:32:15;;;;;;;;;;;;;;;1.84;78.17;100653.09;5589244;31;33873;-67
2023/03/16 05:35:21;;;;;;;;;;;;;;;1.85;78.44;100660.81;5590249;31;33168;-68
2023/03/16 05:38:30;;;;;;;;;;;;;;;1.91;77.95;100659.56;5589482;31;34140;-68
2023/03/16 05:41:37;;;;;;;;;;;;;;;1.91;77.50;100656.97;5590414;31;34614;-67
2023/03/16 05:44:44;;;;;;;;;;;;;;;1.96;76.71;100654.88;5590044;31;34497;-67
2023/03/16 05:47:53;;;;;;;;;;;;;;;1.97;77.13;100665.22;5590224;31;34810;-67
2023/03/16 05:51:00;;;;;;;;;;;;;;;2.03;77.74;100667.41;5589200;31;34477;-67
2023/03/16 05:54:06;;;;;;;;;;;;;;;2.06;76.85;100667.22;5590213;31;34490;-67
2023/03/16 05:57:13;;;;;;;;;;;;;;;2.05;76.83;100667.31;5589855;31;33161;-67
2023/03/16 06:00:21;;;;;;;;;;;;;;;2.15;76.75;100671.81;5589193;31;34614;-67
2023/03/16 06:03:28;;;;;;;;;;;;;;;2.22;75.38;100679.22;5589217;31;34594;-67
2023/03/16 06:06:33;;;;;;;;;;;;;;;2.28;75.22;100686.62;5589762;31;34653;-67
2023/03/16 06:09:40;;;;;;;;;;;;;;;2.38;74.88;100695.50;5589301;31;34451;-67
2023/03/16 06:12:46;;;;;;;;;;;;;;;2.41;74.16;100690.91;5588912;31;35127;-67
2023/03/16 06:15:51;;;;;;;;;;;;;;;2.52;73.35;100690.12;5589557;31;34569;-70
2023/03/16 06:18:56;;;;;;;;;;;;;;;2.62;72.96;100696.41;5588964;31;34483;-67
2023/03/16 06:22:03;;;;;;;;;;;;;;;2.81;71.80;100699.38;5589754;31;34153;-68
2023/03/16 06:25:10;;;;;;;;;;;;;;;3.07;70.10;100700.12;5589647;31;35202;-68
2023/03/16 06:28:15;;;;;;;;;;;;;;;3.34;67.83;100710.38;5589626;31;35147;-69
2023/03/16 06:31:21;;;;;;;;;;;;;;;3.48;67.48;100707.56;5589573;31;35055;-69
2023/03/16 06:34:26;;;;;;;;;;;;;;;3.85;64.47;100716.09;5588765;31;34369;-68
2023/03/16 06:37:32;;;;;;;;;;;;;;;3.90;63.98;100717.44;5588854;31;34719;-67
2023/03/16 06:40:37;;;;;;;;;;;;;;;4.12;62.93;100732.34;5588885;31;33220;-66
2023/03/16 06:43:42;;;;;;;;;;;;;;;3.90;62.55;100732.34;5589405;31;34214;-68
2023/03/16 06:46:48;;;;;;;;;;;;;;;4.19;61.63;100744.06;5575433;31;33587;-67
2023/03/16 06:49:54;;;;;;;;;;;;;;;4.38;60.72;100749.56;5588413;31;35174;-66
2023/03/16 06:53:00;;;;;;;;;;;;;;;4.58;60.36;100750.66;5589294;31;34431;-68
2023/03/16 06:56:05;;;;;;;;;;;;;;;4.75;59.47;100751.94;5588477;31;34549;-69
2023/03/16 06:59:10;;;;;;;;;;;;;;;5.13;58.08;100754.97;5589224;31;34432;-68
2023/03/16 07:02:14;;;;;;;;;;;;;;;5.83;55.55;100757.06;5587750;31;35084;-68
2023/03/16 07:05:19;;;;;;;;;;;;;;;5.67;54.44;100767.19;5589302;31;35238;-69
2023/03/16 07:08:24;;;;;;;;;;;;;;;6.03;54.33;100773.88;5589439;31;35171;-69
2023/03/16 07:11:28;;;;;;;;;;;;;;;5.79;55.02;100770.62;5588511;31;35078;-68
2023/03/16 07:14:32;;;;;;;;;;;;;;;6.84;52.36;100770.34;5588490;31;34739;-69
2023/03/16 07:17:37;;;;;;;;;;;;;;;6.26;53.99;100775.38;5588995;31;35078;-68
2023/03/16 07:20:43;;;;;;;;;;;;;;;6.59;52.69;100781.34;5589120;31;34648;-69
2023/03/16 07:23:49;;;;;;;;;;;;;;;5.98;53.62;100783.94;5589141;31;34502;-68
2023/03/16 07:26:56;;;;;;;;;;;;;;;6.18;53.45;100785.75;5588926;31;34338;-69
2023/03/16 07:30:04;;;;;;;;;;;;;;;6.84;52.33;100787.03;5588396;31;34479;-67
2023/03/16 07:33:10;;;;;;;;;;;;;;;6.74;52.36;100791.41;5588996;31;35205;-68
2023/03/16 07:36:17;;;;;;;;;;;;;;;7.10;51.30;100797.09;5588954;31;34421;-68
2023/03/16 07:39:24;;;;;;;;;;;;;;;8.08;49.10;100803.97;5589028;31;35077;-68
2023/03/16 07:42:34;;;;;;;;;;;;;;;8.54;47.36;100799.69;5588676;31;35109;-68
2023/03/16 07:45:39;;;;;;;;;;;;;;;9.34;45.56;100791.91;5588857;31;34436;-67
2023/03/16 07:48:44;;;;;;;;;;;;;;;8.92;45.84;100796.87;5588451;31;34401;-69
2023/03/16 07:51:49;;;;;;;;;;;;;;;9.66;45.37;100793.22;5588662;31;35104;-68
2023/03/16 07:54:55;;;;;;;;;;;;;;;10.11;43.88;100799.22;5588848;31;34017;-69
2023/03/16 07:58:00;;;;;;;;;;;;;;;9.22;45.93;100805.50;5588732;31;34511;-68
2023/03/16 08:01:05;;;;;;;;;;;;;;;10.07;43.49;100807.66;5587995;31;34444;-68
2023/03/16 08:04:11;;;;;;;;;;;;;;;10.90;41.63;100801.69;5587678;31;34673;-69
2023/03/16 08:07:15;;;;;;;;;;;;;;;11.80;40.62;100810.75;5587771;31;35808;-68
2023/03/16 08:10:23;;;;;;;;;;;;;;;12.12;39.52;100822.22;5588437;31;35200;-68
2023/03/16 08:13:29;;;;;;;;;;;;;;;10.57;42.85;100816.63;5589073;31;34764;-69
2023/03/16 08:16:36;;;;;;;;;;;;;;;11.50;40.37;100814.84;5589875;31;34896;-69
2023/03/16 08:19:47;;;;;;;;;;;;;;;11.81;39.36;100817.75;5589887;31;34603;-69
2023/03/16 08:22:55;;;;;;;;;;;;;;;10.81;40.41;100819.41;5589768;31;33578;-69
2023/03/16 08:26:02;;;;;;;;;;;;;;;12.12;38.29;100829.38;5577244;31;33541;-69
2023/03/16 08:29:07;;;;;;;;;;;;;;;11.76;38.33;100823.56;5590044;31;33954;-69
2023/03/16 08:32:15;;;;;;;;;;;;;;;10.75;40.20;100825.34;5591070;31;34589;-67
2023/03/16 08:35:24;;;;;;;;;;;;;;;10.71;39.49;100831.97;5590446;31;34831;-67
2023/03/16 08:38:28;;;;;;;;;;;;;;;12.17;37.23;100819.91;5590263;31;34586;-69
2023/03/16 08:41:34;;;;;;;;;;;;;;;12.58;37.50;100835.81;5576884;31;34316;-69
2023/03/16 08:44:40;;;;;;;;;;;;;;;14.02;33.84;100834.47;5590481;31;35223;-68
2023/03/16 08:47:50;;;;;;;;;;;;;;;12.29;36.71;100836.38;5590181;31;35022;-70
2023/03/16 08:50:55;;;;;;;;;;;;;;;12.52;36.14;100836.50;5590528;31;35075;-69
2023/03/16 08:54:01;;;;;;;;;;;;;;;11.64;36.92;100843.44;5589771;31;35803;-69
2023/03/16 08:57:05;;;;;;;;;;;;;;;10.56;38.90;100835.34;5590797;31;35206;-69
2023/03/16 09:00:13;;;;;;;;;;;;;;;9.49;40.57;100842.53;5577281;31;34515;-68
2023/03/16 09:03:17;;;;;;;;;;;;;;;8.62;41.49;100835.00;5589661;31;34510;-68
2023/03/16 09:06:21;;;;;;;;;;;;;;;8.17;44.26;100834.81;5589682;31;34502;-67
2023/03/16 09:09:25;;;;;;;;;;;;;;;7.45;44.94;100838.84;5590252;31;35143;-67
2023/03/16 09:12:29;;;;;;;;;;;;;;;6.99;46.28;100854.25;5590013;31;34648;-66
2023/03/16 09:15:36;;;;;;;;;;;;;;;6.74;46.45;100846.78;5590043;31;35058;-67
2023/03/16 09:18:41;;;;;;;;;;;;;;;6.85;48.09;100851.16;5589823;31;33086;-67
2023/03/16 09:21:44;;;;;;;;;;;;;;;6.71;47.57;100854.97;5590230;31;34613;-67
2023/03/16 09:24:50;;;;;;;;;;;;;;;6.75;48.07;100852.91;5589835;31;35053;-67
2023/03/16 09:27:53;;;;;;;;;;;;;;;6.65;48.68;100860.78;5590247;31;35144;-67
2023/03/16 09:31:06;;;;;;;;;;;;;;;6.63;48.93;100861.88;5589865;31;35181;-67
2023/03/16 09:34:12;;;;;;;;;;;;;;;6.51;49.07;100866.38;5589253;31;34501;-68
2023/03/16 09:37:18;;;;;;;;;;;;;;;6.46;49.28;100852.75;5576296;31;33512;-68
2023/03/16 09:40:24;;;;;;;;;;;;;;;6.48;48.13;100858.75;5589239;31;34214;-67
2023/03/16 09:43:35;;;;;;;;;;;;;;;6.62;47.70;100853.13;5590144;31;34966;-67
2023/03/16 09:46:42;;;;;;;;;;;;;;;6.59;47.83;100847.25;5589485;31;34581;-68
2023/03/16 09:49:47;;;;;;;;;;;;;;;6.61;48.55;100854.09;5589764;31;34611;-67
2023/03/16 09:53:01;;;;;;;;;;;;;;;6.78;46.35;100855.25;5589129;31;34688;-68
2023/03/16 09:56:15;;;;;;;;;;;;;;;6.73;43.88;100858.31;5589919;31;34461;-68
2023/03/16 09:59:21;;;;;;;;;;;;;;;6.60;44.61;100862.97;5589645;31;34540;-67
2023/03/16 10:02:34;;;;;;;;;;;;;;;6.66;44.15;100851.91;5589853;31;34639;-67
2023/03/16 10:05:38;;;;;;;;;;;;;;;6.82;44.49;100856.69;5589685;31;35043;-67
2023/03/16 10:08:43;;;;;;;;;;;;;;;6.84;44.44;100867.94;5589090;31;35228;-66
2023/03/16 10:11:51;;;;;;;;;;;;;;;6.90;43.85;100872.69;5589005;31;34119;-68
2023/03/16 10:15:04;;;;;;;;;;;;;;;6.82;43.59;100869.88;5589810;31;34160;-67
2023/03/16 10:18:19;;;;;;;;;;;;;;;6.86;42.49;100864.22;5589040;31;34509;-67
2023/03/16 10:21:24;;;;;;;;;;;;;;;6.94;42.38;100859.09;5589579;31;35028;-66
2023/03/16 10:24:33;;;;;;;;;;;;;;;7.18;42.87;100860.56;5590002;31;34401;-68
2023/03/16 10:27:37;;;;;;;;;;;;;;;7.33;41.91;100872.41;5589534;31;35052;-67
2023/03/16 10:30:43;;;;;;;;;;;;;;;7.19;41.94;100871.00;5589911;31;34480;-68
2023/03/16 10:33:48;;;;;;;;;;;;;;;7.23;42.65;100879.47;5589769;31;34792;-67
2023/03/16 10:36:54;;;;;;;;;;;;;;;7.19;41.88;100876.28;5588299;31;34610;-66
2023/03/16 10:40:00;;;;;;;;;;;;;;;7.50;40.74;100873.59;5588871;31;35148;-68
2023/03/16 10:43:05;;;;;;;;;;;;;;;7.64;41.48;100883.75;5589598;31;34659;-68
2023/03/16 10:46:10;;;;;;;;;;;;;;;7.65;40.48;100880.97;5589738;31;34588;-67
2023/03/16 10:49:24;;;;;;;;;;;;;;;7.34;40.38;100879.38;5589756;31;35178;-68
2023/03/16 10:52:30;;;;;;;;;;;;;;;7.37;39.88;100874.66;5589017;31;34369;-68
2023/03/16 10:55:42;;;;;;;;;;;;;;;7.36;41.16;100870.34;5589656;31;35069;-67
2023/03/16 10:58:48;;;;;;;;;;;;;;;7.64;40.60;100866.09;5589078;31;34610;-68
2023/03/16 11:01:55;;;;;;;;;;;;;;;7.46;40.89;100857.16;5589409;31;34535;-68
2023/03/16 11:05:10;;;;;;;;;;;;;;;7.69;40.75;100860.41;5589411;31;35150;-68
2023/03/16 11:08:19;;;;;;;;;;;;;;;8.50;38.09;100867.06;5589622;31;34549;-67
2023/03/16 11:11:31;;;;;;;;;;;;;;;12.08;34.20;100863.47;5589292;31;35219;-68
2023/03/16 11:14:37;;;;;;;;;;;;;;;14.07;29.54;100856.94;5589279;31;34542;-69
2023/03/16 11:17:45;;;;;;;;;;;;;;;15.03;27.62;100865.03;5588432;31;34814;-68
2023/03/16 11:20:54;;;;;;;;;;;;;;;16.10;25.80;100855.38;5589282;31;34868;-69
2023/03/16 11:24:02;;;;;;;;;;;;;;;16.78;25.02;100864.59;5588459;31;34386;-69
2023/03/16 11:27:15;;;;;;;;;;;;;;;15.65;26.34;100861.91;5589234;31;34840;-69
2023/03/16 11:30:38;;;;;;;;;;;;;;;17.60;23.56;100861.94;5588858;31;35074;-69
2023/03/16 11:33:47;;;;;;;;;;;;;;;17.23;24.08;100855.16;5588820;31;35073;-69
2023/03/16 11:37:02;;;;;;;;;;;;;;;20.57;20.67;100849.31;5588847;31;35197;-69
2023/03/16 11:40:14;;;;;;;;;;;;;;;18.85;21.74;100844.03;5588811;31;34612;-69
2023/03/16 11:43:30;;;;;;;;;;;;;;;18.54;21.43;100849.28;5588829;31;35120;-69
2023/03/16 11:46:41;;;;;;;;;;;;;;;19.58;20.45;100847.31;5587930;31;35190;-69
2023/03/16 11:49:56;;;;;;;;;;;;;;;23.16;17.14;100837.03;5588391;31;34670;-69
2023/03/16 11:53:01;;;;;;;;;;;;;;;21.39;19.00;100842.62;5588576;31;34425;-70
2023/03/16 11:56:06;;;;;;;;;;;;;;;24.58;16.24;100843.16;5588441;31;34553;-70
2023/03/16 11:59:13;;;;;;;;;;;;;;;24.17;16.01;100824.59;5587968;31;35176;-70
2023/03/16 12:02:31;;;;;;;;;;;;;;;24.35;15.65;100837.13;5587217;31;34666;-71
2023/03/16 12:05:35;;;;;;;;;;;;;;;24.54;15.17;100830.34;5588098;31;35063;-70
2023/03/16 12:08:58;;;;;;;;;;;;;;;20.83;16.89;100836.41;5588056;31;34550;-70
2023/03/16 12:12:03;;;;;;;;;;;;;;;19.43;18.54;100826.03;5554442;31;1042985;-71
2023/03/16 12:15:20;;;;;;;;;;;;;;;19.79;18.19;100816.56;5587184;31;34762;-70
2023/03/16 12:18:29;;;;;;;;;;;;;;;21.41;16.33;100818.91;5587646;31;34740;-70
2023/03/16 12:21:37;;;;;;;;;;;;;;;18.71;17.98;100812.84;5587007;31;34540;-70
2023/03/16 12:24:42;;;;;;;;;;;;;;;22.69;15.58;100820.03;5587857;31;34886;-70
2023/03/16 12:27:47;;;;;;;;;;;;;;;18.89;17.15;100822.94;5586933;31;34620;-70
2023/03/16 12:30:58;;;;;;;;;;;;;;;19.02;17.18;100812.16;5587590;31;34367;-70
2023/03/16 12:34:01;;;;;;;;;;;;;;;21.75;15.59;100812.84;5587696;31;35123;-70
2023/03/16 12:37:40;;;;;;;;;;;;;;;21.16;15.86;100810.94;5587348;31;34391;-69
2023/03/16 12:40:52;;;;;;;;;;;;;;;23.32;13.76;100811.94;5507955;32;33420;-71
2023/03/16 12:43:57;;;;;;;;;;;;;;;19.65;16.02;100806.91;5508066;32;34144;-68
2023/03/16 12:47:23;;;;;;;;;;;;;;;22.96;14.50;100817.66;5507843;32;35183;-69
2023/03/16 12:50:27;;;;;;;;;;;;;;;20.16;15.16;100801.34;5502573;32;35226;-69
2023/03/16 12:53:42;;;;;;;;;;;;;;;19.71;16.20;100808.72;5507777;32;34788;-68
2023/03/16 12:56:48;;;;;;;;;;;;;;;21.21;14.68;100816.47;5507559;32;34495;-68
2023/03/16 12:59:57;;;;;;;;;;;;;;;18.39;16.56;100814.53;5508260;32;34592;-68
2023/03/16 13:03:01;;;;;;;;;;;;;;;17.31;17.75;100814.75;5497957;32;34887;-68
2023/03/16 13:06:05;;;;;;;;;;;;;;;15.83;18.80;100808.81;5510270;32;34216;-68
2023/03/16 13:09:10;;;;;;;;;;;;;;;18.58;17.02;100811.03;5484641;32;33027;-68
2023/03/16 13:12:23;;;;;;;;;;;;;;;20.93;14.50;100802.69;5510134;32;34593;-69
2023/03/16 13:15:28;;;;;;;;;;;;;;;17.63;16.52;100813.22;5576603;31;34640;-69
2023/03/16 13:18:44;;;;;;;;;;;;;;;17.78;16.05;100819.25;5588858;31;34862;-69
2023/03/16 13:21:47;;;;;;;;;;;;;;;15.28;18.27;100808.59;5589520;31;34788;-69
2023/03/16 13:24:58;;;;;;;;;;;;;;;17.31;17.74;100807.56;5589425;31;34806;-68
2023/03/16 13:28:05;;;;;;;;;;;;;;;15.46;18.40;100807.16;5589661;31;35312;-68
2023/03/16 13:31:22;;;;;;;;;;;;;;;15.98;18.40;100806.87;5589510;31;34622;-70
2023/03/16 13:34:32;;;;;;;;;;;;;;;16.52;17.35;100804.44;5589714;31;35070;-68
2023/03/16 13:37:38;;;;;;;;;;;;;;;16.99;17.05;100813.59;5589609;31;34501;-69
2023/03/16 13:40:47;;;;;;;;;;;;;;;19.15;15.19;100809.41;5589584;31;35643;-70
2023/03/16 13:43:51;;;;;;;;;;;;;;;15.87;17.33;100810.09;5588660;31;33598;-69
2023/03/16 13:46:56;;;;;;;;;;;;;;;14.16;18.98;100798.97;5588760;31;34598;-68
2023/03/16 13:49:59;;;;;;;;;;;;;;;16.24;17.90;100802.78;5575798;31;33487;-68
2023/03/16 13:53:09;;;;;;;;;;;;;;;14.59;18.83;100792.06;5588813;31;34321;-69
2023/03/16 13:56:14;;;;;;;;;;;;;;;15.43;18.19;100801.38;5589170;31;34466;-70
2023/03/16 13:59:20;;;;;;;;;;;;;;;17.51;16.70;100812.16;5589292;31;34641;-69
2023/03/16 14:02:25;;;;;;;;;;;;;;;15.56;19.12;100804.22;5589408;31;34459;-68
2023/03/16 14:05:34;;;;;;;;;;;;;;;14.70;18.92;100802.31;5589429;31;34377;-68
2023/03/16 14:08:40;;;;;;;;;;;;;;;15.70;18.41;100802.50;5589409;31;35031;-69
2023/03/16 14:11:47;;;;;;;;;;;;;;;16.46;17.84;100804.38;5589206;31;34516;-69
2023/03/16 14:14:54;;;;;;;;;;;;;;;19.05;16.76;100801.78;5575643;31;32885;-68
2023/03/16 14:18:14;;;;;;;;;;;;;;;20.81;14.07;100813.41;5575882;31;34481;-68
2023/03/16 14:21:26;;;;;;;;;;;;;;;18.32;16.08;100804.81;5588379;31;33761;-68
2023/03/16 14:24:37;;;;;;;;;;;;;;;18.24;15.41;100811.25;5589198;31;34592;-68
2023/03/16 14:27:43;;;;;;;;;;;;;;;14.86;17.24;100814.66;5589382;31;35007;-69
2023/03/16 14:30:52;;;;;;;;;;;;;;;14.71;16.90;100811.97;5588157;31;33256;-68
2023/03/16 14:34:03;;;;;;;;;;;;;;;16.94;14.85;100818.75;5588255;31;34865;-68
2023/03/16 14:37:14;;;;;;;;;;;;;;;16.24;15.47;100819.69;5588087;31;34524;-68
2023/03/16 14:40:32;;;;;;;;;;;;;;;16.89;14.83;100816.63;5588644;31;34590;-68
2023/03/16 14:43:48;;;;;;;;;;;;;;;14.15;17.67;100824.00;5588260;31;34627;-68
2023/03/16 14:46:58;;;;;;;;;;;;;;;12.17;20.14;100821.72;5589147;31;34415;-68
2023/03/16 14:50:06;;;;;;;;;;;;;;;10.72;22.37;100814.22;5587776;31;35170;-67
2023/03/16 14:53:11;;;;;;;;;;;;;;;10.37;22.90;100821.31;5588819;31;34934;-68
2023/03/16 14:56:22;;;;;;;;;;;;;;;10.45;23.25;100821.38;5588950;31;33381;-68
2023/03/16 14:59:25;;;;;;;;;;;;;;;10.03;23.60;100821.19;5588560;31;35293;-68
2023/03/16 15:02:32;;;;;;;;;;;;;;;9.95;23.86;100829.09;5587891;31;35337;-69
2023/03/16 15:05:40;;;;;;;;;;;;;;;9.85;24.37;100830.97;5588324;31;34965;-68
2023/03/16 15:08:46;;;;;;;;;;;;;;;9.80;23.92;100829.75;5587851;31;34503;-67
2023/03/16 15:11:54;;;;;;;;;;;;;;;9.74;23.38;100833.00;5588602;31;35130;-68
2023/03/16 15:15:15;;;;;;;;;;;;;;;9.48;22.76;100831.13;5587752;31;34783;-68
2023/03/16 15:18:20;;;;;;;;;;;;;;;9.43;22.87;100819.31;5588361;31;34872;-68
2023/03/16 15:21:28;;;;;;;;;;;;;;;9.43;22.41;100825.44;5588768;31;34488;-69
2023/03/16 15:24:34;;;;;;;;;;;;;;;9.39;23.52;100836.50;5588257;31;34451;-68
2023/03/16 15:27:42;;;;;;;;;;;;;;;9.38;23.59;100840.94;5588999;31;35165;-67
2023/03/16 15:30:48;;;;;;;;;;;;;;;9.42;22.86;100844.13;5588420;31;34998;-67
2023/03/16 15:33:56;;;;;;;;;;;;;;;9.31;23.14;100836.38;5588992;31;34875;-68
2023/03/16 15:37:02;;;;;;;;;;;;;;;9.23;23.61;100844.22;5588648;31;34696;-68
2023/03/16 15:40:20;;;;;;;;;;;;;;;9.13;23.21;100842.47;5588130;31;34743;-67
2023/03/16 15:43:27;;;;;;;;;;;;;;;9.11;22.58;100852.38;5588445;31;34884;-67
2023/03/16 15:46:32;;;;;;;;;;;;;;;9.04;22.71;100856.59;5588589;31;35014;-68
2023/03/16 15:49:38;;;;;;;;;;;;;;;8.95;22.81;100867.22;5588824;31;35150;-68
2023/03/16 15:52:53;;;;;;;;;;;;;;;8.94;22.69;100863.75;5588638;31;35034;-68
2023/03/16 15:56:01;;;;;;;;;;;;;;;8.89;22.73;100859.84;5588213;31;35036;-68
2023/03/16 15:59:12;;;;;;;;;;;;;;;8.86;23.24;100865.44;5588506;31;34982;-68
2023/03/16 16:02:24;;;;;;;;;;;;;;;8.82;23.48;100864.88;5588359;31;35254;-67
2023/03/16 16:05:31;;;;;;;;;;;;;;;8.71;23.79;100873.81;5588630;31;34207;-69
2023/03/16 16:08:37;;;;;;;;;;;;;;;8.64;23.21;100883.31;5588395;31;34708;-66
2023/03/16 16:11:46;;;;;;;;;;;;;;;8.60;23.78;100874.00;5587520;31;34534;-67
2023/03/16 16:14:55;;;;;;;;;;;;;;;8.51;24.19;100880.16;5587990;31;35317;-67